sensor_id;sensor_type;location;lat;lon;timestamp;P1;durP1;ratioP1;P2;durP2;ratioP2
49812;SDS011;35706;52.100;5.056;2023-04-03T00:00:04;1.45;;;0.20;;
49812;SDS011;35706;52.100;5.056;2023-04-03T00:01:05;1.25;;;0.20;;
49812;SDS011;35706;52.100;5.056;2023-04-03T00:02:06;0.93;;;0.30;;
49812;SDS011;35706;52.100;5.056;2023-04-03T00:03:06;4.80;;;0.20;;
49812;SDS011;35706;52.100;5.056;2023-04-03T00:04:07;0.85;;;0.20;;
49812;SDS011;35706;52.100;5.056;2023-04-03T00:05:07;0.82;;;0.10;;
49812;SDS011;35706;52.100;5.056;2023-04-03T00:06:08;2.50;;;0.20;;
49812;SDS011;35706;52.100;5.056;2023-04-03T00:07:10;0.47;;;0.20;;
49812;SDS011;35706;52.100;5.056;2023-04-03T00:08:12;1.48;;;0.20;;
49812;SDS011;35706;52.100;5.056;2023-04-03T00:09:13;0.60;;;0.20;;
49812;SDS011;35706;52.100;5.056;2023-04-03T00:10:13;1.48;;;0.20;;
49812;SDS011;35706;52.100;5.056;2023-04-03T00:11:15;1.17;;;0.28;;
49812;SDS011;35706;52.100;5.056;2023-04-03T00:12:16;0.70;;;0.20;;
49812;SDS011;35706;52.100;5.056;2023-04-03T00:13:16;1.40;;;0.20;;
49812;SDS011;35706;52.100;5.056;2023-04-03T00:14:17;1.05;;;0.20;;
49812;SDS011;35706;52.100;5.056;2023-04-03T00:15:17;0.52;;;0.20;;
49812;SDS011;35706;52.100;5.056;2023-04-03T00:16:17;0.75;;;0.20;;
49812;SDS011;35706;52.100;5.056;2023-04-03T00:17:18;1.42;;;0.20;;
49812;SDS011;35706;52.100;5.056;2023-04-03T00:18:18;0.70;;;0.20;;
49812;SDS011;35706;52.100;5.056;2023-04-03T00:19:19;0.95;;;0.20;;
49812;SDS011;35706;52.100;5.056;2023-04-03T00:20:20;1.98;;;0.22;;
49812;SDS011;35706;52.100;5.056;2023-04-03T00:21:20;0.88;;;0.20;;
49812;SDS011;35706;52.100;5.056;2023-04-03T00:22:20;1.88;;;0.20;;
49812;SDS011;35706;52.100;5.056;2023-04-03T00:23:21;1.10;;;0.20;;
49812;SDS011;35706;52.100;5.056;2023-04-03T00:24:23;2.60;;;0.20;;
49812;SDS011;35706;52.100;5.056;2023-04-03T00:25:24;0.75;;;0.20;;
49812;SDS011;35706;52.100;5.056;2023-04-03T00:26:24;1.10;;;0.20;;
49812;SDS011;35706;52.100;5.056;2023-04-03T00:27:25;1.83;;;0.20;;
49812;SDS011;35706;52.100;5.056;2023-04-03T00:28:25;1.25;;;0.28;;
49812;SDS011;35706;52.100;5.056;2023-04-03T00:29:26;1.13;;;0.28;;
49812;SDS011;35706;52.100;5.056;2023-04-03T00:30:27;1.50;;;0.30;;
49812;SDS011;35706;52.100;5.056;2023-04-03T00:31:27;0.93;;;0.20;;
49812;SDS011;35706;52.100;5.056;2023-04-03T00:32:27;1.65;;;0.20;;
49812;SDS011;35706;52.100;5.056;2023-04-03T00:33:27;2.30;;;0.30;;
49812;SDS011;35706;52.100;5.056;2023-04-03T00:34:28;2.45;;;0.30;;
49812;SDS011;35706;52.100;5.056;2023-04-03T00:35:28;2.13;;;0.28;;
49812;SDS011;35706;52.100;5.056;2023-04-03T00:36:29;3.17;;;0.20;;
49812;SDS011;35706;52.100;5.056;2023-04-03T00:37:29;2.08;;;0.30;;
49812;SDS011;35706;52.100;5.056;2023-04-03T00:38:31;2.67;;;0.20;;
49812;SDS011;35706;52.100;5.056;2023-04-03T00:39:31;1.13;;;0.20;;
49812;SDS011;35706;52.100;5.056;2023-04-03T00:40:35;2.03;;;0.20;;
49812;SDS011;35706;52.100;5.056;2023-04-03T00:41:39;1.02;;;0.20;;
49812;SDS011;35706;52.100;5.056;2023-04-03T00:42:40;6.72;;;0.20;;
49812;SDS011;35706;52.100;5.056;2023-04-03T00:43:42;2.22;;;0.20;;
49812;SDS011;35706;52.100;5.056;2023-04-03T00:45:46;3.53;;;0.20;;
49812;SDS011;35706;52.100;5.056;2023-04-03T00:46:48;1.20;;;0.30;;
49812;SDS011;35706;52.100;5.056;2023-04-03T00:47:48;1.65;;;0.40;;
49812;SDS011;35706;52.100;5.056;2023-04-03T00:48:49;2.55;;;0.50;;
49812;SDS011;35706;52.100;5.056;2023-04-03T00:49:50;0.90;;;0.30;;
49812;SDS011;35706;52.100;5.056;2023-04-03T00:50:52;2.67;;;0.30;;
49812;SDS011;35706;52.100;5.056;2023-04-03T00:51:53;2.05;;;0.20;;
49812;SDS011;35706;52.100;5.056;2023-04-03T00:52:55;0.85;;;0.28;;
49812;SDS011;35706;52.100;5.056;2023-04-03T00:54:00;2.05;;;0.20;;
49812;SDS011;35706;52.100;5.056;2023-04-03T00:55:05;1.60;;;0.20;;
49812;SDS011;35706;52.100;5.056;2023-04-03T00:56:09;2.67;;;0.30;;
49812;SDS011;35706;52.100;5.056;2023-04-03T00:57:12;0.50;;;0.20;;
49812;SDS011;35706;52.100;5.056;2023-04-03T00:58:15;0.80;;;0.30;;
49812;SDS011;35706;52.100;5.056;2023-04-03T00:59:21;0.80;;;0.20;;
49812;SDS011;35706;52.100;5.056;2023-04-03T01:00:25;0.63;;;0.20;;
49812;SDS011;35706;52.100;5.056;2023-04-03T01:01:27;1.55;;;0.30;;
49812;SDS011;35706;52.100;5.056;2023-04-03T01:02:28;3.13;;;0.30;;
49812;SDS011;35706;52.100;5.056;2023-04-03T01:03:28;0.95;;;0.25;;
49812;SDS011;35706;52.100;5.056;2023-04-03T01:05:31;3.63;;;0.22;;
49812;SDS011;35706;52.100;5.056;2023-04-03T01:06:34;2.17;;;0.30;;
49812;SDS011;35706;52.100;5.056;2023-04-03T01:07:36;0.80;;;0.20;;
49812;SDS011;35706;52.100;5.056;2023-04-03T01:08:41;0.38;;;0.15;;
49812;SDS011;35706;52.100;5.056;2023-04-03T01:09:41;0.70;;;0.20;;
49812;SDS011;35706;52.100;5.056;2023-04-03T01:10:42;0.98;;;0.20;;
49812;SDS011;35706;52.100;5.056;2023-04-03T01:11:42;1.42;;;0.20;;
49812;SDS011;35706;52.100;5.056;2023-04-03T01:12:43;0.65;;;0.28;;
49812;SDS011;35706;52.100;5.056;2023-04-03T01:13:45;0.90;;;0.20;;
49812;SDS011;35706;52.100;5.056;2023-04-03T01:14:46;0.80;;;0.20;;
49812;SDS011;35706;52.100;5.056;2023-04-03T01:15:48;2.70;;;0.30;;
49812;SDS011;35706;52.100;5.056;2023-04-03T01:16:53;2.17;;;0.30;;
49812;SDS011;35706;52.100;5.056;2023-04-03T01:17:55;0.77;;;0.20;;
49812;SDS011;35706;52.100;5.056;2023-04-03T01:18:56;0.90;;;0.20;;
49812;SDS011;35706;52.100;5.056;2023-04-03T01:21:28;1.10;;;0.20;;
49812;SDS011;35706;52.100;5.056;2023-04-03T01:25:17;3.95;;;0.28;;
49812;SDS011;35706;52.100;5.056;2023-04-03T01:26:18;2.38;;;0.20;;
49812;SDS011;35706;52.100;5.056;2023-04-03T01:27:18;1.55;;;0.20;;
49812;SDS011;35706;52.100;5.056;2023-04-03T01:28:21;1.48;;;0.22;;
49812;SDS011;35706;52.100;5.056;2023-04-03T01:29:22;0.73;;;0.20;;
49812;SDS011;35706;52.100;5.056;2023-04-03T01:30:23;1.77;;;0.30;;
49812;SDS011;35706;52.100;5.056;2023-04-03T01:32:49;3.92;;;0.25;;
49812;SDS011;35706;52.100;5.056;2023-04-03T01:33:49;2.30;;;0.30;;
49812;SDS011;35706;52.100;5.056;2023-04-03T01:34:51;0.60;;;0.20;;
49812;SDS011;35706;52.100;5.056;2023-04-03T01:35:51;1.60;;;0.20;;
49812;SDS011;35706;52.100;5.056;2023-04-03T01:36:52;1.73;;;0.22;;
49812;SDS011;35706;52.100;5.056;2023-04-03T01:37:52;1.80;;;0.30;;
49812;SDS011;35706;52.100;5.056;2023-04-03T01:38:53;1.27;;;0.28;;
49812;SDS011;35706;52.100;5.056;2023-04-03T01:39:54;2.17;;;0.20;;
49812;SDS011;35706;52.100;5.056;2023-04-03T01:40:55;1.08;;;0.30;;
49812;SDS011;35706;52.100;5.056;2023-04-03T01:41:55;1.30;;;0.30;;
49812;SDS011;35706;52.100;5.056;2023-04-03T01:42:55;1.77;;;0.20;;
49812;SDS011;35706;52.100;5.056;2023-04-03T01:43:56;1.23;;;0.20;;
49812;SDS011;35706;52.100;5.056;2023-04-03T01:44:56;1.48;;;0.28;;
49812;SDS011;35706;52.100;5.056;2023-04-03T01:45:56;1.00;;;0.30;;
49812;SDS011;35706;52.100;5.056;2023-04-03T01:46:57;1.27;;;0.30;;
49812;SDS011;35706;52.100;5.056;2023-04-03T01:47:57;3.42;;;0.22;;
49812;SDS011;35706;52.100;5.056;2023-04-03T01:48:57;0.75;;;0.30;;
49812;SDS011;35706;52.100;5.056;2023-04-03T01:49:58;1.48;;;0.30;;
49812;SDS011;35706;52.100;5.056;2023-04-03T01:50:58;0.90;;;0.20;;
49812;SDS011;35706;52.100;5.056;2023-04-03T01:51:58;3.00;;;0.30;;
49812;SDS011;35706;52.100;5.056;2023-04-03T01:52:59;0.68;;;0.25;;
49812;SDS011;35706;52.100;5.056;2023-04-03T01:53:59;0.80;;;0.20;;
49812;SDS011;35706;52.100;5.056;2023-04-03T01:55:00;0.90;;;0.30;;
49812;SDS011;35706;52.100;5.056;2023-04-03T01:56:00;2.15;;;0.30;;
49812;SDS011;35706;52.100;5.056;2023-04-03T01:57:01;3.47;;;0.30;;
49812;SDS011;35706;52.100;5.056;2023-04-03T01:58:01;0.77;;;0.20;;
49812;SDS011;35706;52.100;5.056;2023-04-03T01:59:02;0.90;;;0.20;;
49812;SDS011;35706;52.100;5.056;2023-04-03T02:00:02;1.10;;;0.30;;
49812;SDS011;35706;52.100;5.056;2023-04-03T02:01:03;0.60;;;0.20;;
49812;SDS011;35706;52.100;5.056;2023-04-03T02:02:04;3.30;;;0.20;;
49812;SDS011;35706;52.100;5.056;2023-04-03T02:03:04;2.60;;;0.25;;
49812;SDS011;35706;52.100;5.056;2023-04-03T02:04:05;1.20;;;0.30;;
49812;SDS011;35706;52.100;5.056;2023-04-03T02:05:06;2.55;;;0.30;;
49812;SDS011;35706;52.100;5.056;2023-04-03T02:06:06;1.13;;;0.30;;
49812;SDS011;35706;52.100;5.056;2023-04-03T02:07:07;1.08;;;0.30;;
49812;SDS011;35706;52.100;5.056;2023-04-03T02:08:07;0.75;;;0.20;;
49812;SDS011;35706;52.100;5.056;2023-04-03T02:09:07;1.88;;;0.30;;
49812;SDS011;35706;52.100;5.056;2023-04-03T02:10:08;1.23;;;0.30;;
49812;SDS011;35706;52.100;5.056;2023-04-03T02:11:08;1.00;;;0.25;;
49812;SDS011;35706;52.100;5.056;2023-04-03T02:12:09;1.23;;;0.30;;
49812;SDS011;35706;52.100;5.056;2023-04-03T02:13:09;0.65;;;0.20;;
49812;SDS011;35706;52.100;5.056;2023-04-03T02:14:10;1.90;;;0.20;;
49812;SDS011;35706;52.100;5.056;2023-04-03T02:15:10;0.88;;;0.20;;
49812;SDS011;35706;52.100;5.056;2023-04-03T02:16:10;0.70;;;0.30;;
49812;SDS011;35706;52.100;5.056;2023-04-03T02:17:12;1.95;;;0.30;;
49812;SDS011;35706;52.100;5.056;2023-04-03T02:18:12;1.52;;;0.20;;
49812;SDS011;35706;52.100;5.056;2023-04-03T02:19:13;1.50;;;0.30;;
49812;SDS011;35706;52.100;5.056;2023-04-03T02:20:14;1.20;;;0.22;;
49812;SDS011;35706;52.100;5.056;2023-04-03T02:21:15;4.05;;;0.30;;
49812;SDS011;35706;52.100;5.056;2023-04-03T02:22:15;2.70;;;0.30;;
49812;SDS011;35706;52.100;5.056;2023-04-03T02:23:15;0.98;;;0.28;;
49812;SDS011;35706;52.100;5.056;2023-04-03T02:24:16;1.58;;;0.30;;
49812;SDS011;35706;52.100;5.056;2023-04-03T02:25:16;0.90;;;0.30;;
49812;SDS011;35706;52.100;5.056;2023-04-03T02:26:17;3.03;;;0.30;;
49812;SDS011;35706;52.100;5.056;2023-04-03T02:27:18;0.95;;;0.30;;
49812;SDS011;35706;52.100;5.056;2023-04-03T02:28:18;2.00;;;0.30;;
49812;SDS011;35706;52.100;5.056;2023-04-03T02:29:18;2.10;;;0.30;;
49812;SDS011;35706;52.100;5.056;2023-04-03T02:30:19;1.70;;;0.20;;
49812;SDS011;35706;52.100;5.056;2023-04-03T02:31:20;1.15;;;0.30;;
49812;SDS011;35706;52.100;5.056;2023-04-03T02:32:21;1.40;;;0.30;;
49812;SDS011;35706;52.100;5.056;2023-04-03T02:33:21;1.83;;;0.20;;
49812;SDS011;35706;52.100;5.056;2023-04-03T02:34:21;0.60;;;0.20;;
49812;SDS011;35706;52.100;5.056;2023-04-03T02:35:21;2.67;;;0.30;;
49812;SDS011;35706;52.100;5.056;2023-04-03T02:36:22;1.25;;;0.30;;
49812;SDS011;35706;52.100;5.056;2023-04-03T02:37:22;1.75;;;0.30;;
49812;SDS011;35706;52.100;5.056;2023-04-03T02:38:23;0.98;;;0.20;;
49812;SDS011;35706;52.100;5.056;2023-04-03T02:39:24;1.25;;;0.30;;
49812;SDS011;35706;52.100;5.056;2023-04-03T02:40:24;0.80;;;0.20;;
49812;SDS011;35706;52.100;5.056;2023-04-03T02:41:25;1.77;;;0.20;;
49812;SDS011;35706;52.100;5.056;2023-04-03T02:42:28;0.77;;;0.30;;
49812;SDS011;35706;52.100;5.056;2023-04-03T02:43:28;1.45;;;0.20;;
49812;SDS011;35706;52.100;5.056;2023-04-03T02:44:28;5.43;;;0.40;;
49812;SDS011;35706;52.100;5.056;2023-04-03T02:45:29;1.05;;;0.22;;
49812;SDS011;35706;52.100;5.056;2023-04-03T02:46:29;1.63;;;0.30;;
49812;SDS011;35706;52.100;5.056;2023-04-03T02:47:29;1.05;;;0.30;;
49812;SDS011;35706;52.100;5.056;2023-04-03T02:48:30;1.20;;;0.30;;
49812;SDS011;35706;52.100;5.056;2023-04-03T02:49:30;2.35;;;0.30;;
49812;SDS011;35706;52.100;5.056;2023-04-03T02:50:31;2.03;;;0.30;;
49812;SDS011;35706;52.100;5.056;2023-04-03T02:51:31;1.33;;;0.30;;
49812;SDS011;35706;52.100;5.056;2023-04-03T02:52:32;1.35;;;0.30;;
49812;SDS011;35706;52.100;5.056;2023-04-03T02:53:32;1.88;;;0.30;;
49812;SDS011;35706;52.100;5.056;2023-04-03T02:54:32;2.63;;;0.25;;
49812;SDS011;35706;52.100;5.056;2023-04-03T02:55:33;1.95;;;0.30;;
49812;SDS011;35706;52.100;5.056;2023-04-03T02:56:33;3.28;;;0.30;;
49812;SDS011;35706;52.100;5.056;2023-04-03T02:57:33;0.80;;;0.20;;
49812;SDS011;35706;52.100;5.056;2023-04-03T02:58:34;1.65;;;0.30;;
49812;SDS011;35706;52.100;5.056;2023-04-03T02:59:36;1.80;;;0.30;;
49812;SDS011;35706;52.100;5.056;2023-04-03T03:00:40;2.38;;;0.30;;
49812;SDS011;35706;52.100;5.056;2023-04-03T03:01:40;3.15;;;0.38;;
49812;SDS011;35706;52.100;5.056;2023-04-03T03:02:41;1.20;;;0.28;;
49812;SDS011;35706;52.100;5.056;2023-04-03T03:03:41;0.85;;;0.30;;
49812;SDS011;35706;52.100;5.056;2023-04-03T03:04:41;1.00;;;0.30;;
49812;SDS011;35706;52.100;5.056;2023-04-03T03:05:42;1.88;;;0.30;;
49812;SDS011;35706;52.100;5.056;2023-04-03T03:06:42;3.20;;;0.30;;
49812;SDS011;35706;52.100;5.056;2023-04-03T03:07:43;1.50;;;0.30;;
49812;SDS011;35706;52.100;5.056;2023-04-03T03:08:43;2.08;;;0.30;;
49812;SDS011;35706;52.100;5.056;2023-04-03T03:09:44;0.80;;;0.28;;
49812;SDS011;35706;52.100;5.056;2023-04-03T03:10:44;2.83;;;0.32;;
49812;SDS011;35706;52.100;5.056;2023-04-03T03:11:45;5.97;;;0.30;;
49812;SDS011;35706;52.100;5.056;2023-04-03T03:12:45;0.93;;;0.30;;
49812;SDS011;35706;52.100;5.056;2023-04-03T03:13:46;1.08;;;0.30;;
49812;SDS011;35706;52.100;5.056;2023-04-03T03:14:47;0.82;;;0.30;;
49812;SDS011;35706;52.100;5.056;2023-04-03T03:15:48;1.73;;;0.25;;
49812;SDS011;35706;52.100;5.056;2023-04-03T03:16:48;1.52;;;0.30;;
49812;SDS011;35706;52.100;5.056;2023-04-03T03:17:49;2.10;;;0.30;;
49812;SDS011;35706;52.100;5.056;2023-04-03T03:18:49;2.58;;;0.40;;
49812;SDS011;35706;52.100;5.056;2023-04-03T03:19:49;1.17;;;0.20;;
49812;SDS011;35706;52.100;5.056;2023-04-03T03:20:53;1.70;;;0.30;;
49812;SDS011;35706;52.100;5.056;2023-04-03T03:21:55;2.00;;;0.30;;
49812;SDS011;35706;52.100;5.056;2023-04-03T03:22:56;3.53;;;0.30;;
49812;SDS011;35706;52.100;5.056;2023-04-03T03:23:57;5.50;;;0.30;;
49812;SDS011;35706;52.100;5.056;2023-04-03T03:24:57;1.10;;;0.30;;
49812;SDS011;35706;52.100;5.056;2023-04-03T03:25:58;2.65;;;0.30;;
49812;SDS011;35706;52.100;5.056;2023-04-03T03:27:01;1.35;;;0.30;;
49812;SDS011;35706;52.100;5.056;2023-04-03T03:28:01;1.35;;;0.20;;
49812;SDS011;35706;52.100;5.056;2023-04-03T03:29:02;2.30;;;0.30;;
49812;SDS011;35706;52.100;5.056;2023-04-03T03:30:03;3.80;;;0.38;;
49812;SDS011;35706;52.100;5.056;2023-04-03T03:31:04;0.98;;;0.28;;
49812;SDS011;35706;52.100;5.056;2023-04-03T03:32:05;1.83;;;0.30;;
49812;SDS011;35706;52.100;5.056;2023-04-03T03:33:06;2.63;;;0.30;;
49812;SDS011;35706;52.100;5.056;2023-04-03T03:34:06;1.77;;;0.30;;
49812;SDS011;35706;52.100;5.056;2023-04-03T03:35:07;1.60;;;0.20;;
49812;SDS011;35706;52.100;5.056;2023-04-03T03:36:07;1.50;;;0.30;;
49812;SDS011;35706;52.100;5.056;2023-04-03T03:37:08;3.72;;;0.40;;
49812;SDS011;35706;52.100;5.056;2023-04-03T03:38:08;1.23;;;0.30;;
49812;SDS011;35706;52.100;5.056;2023-04-03T03:39:09;0.57;;;0.20;;
49812;SDS011;35706;52.100;5.056;2023-04-03T03:40:10;1.67;;;0.20;;
49812;SDS011;35706;52.100;5.056;2023-04-03T03:41:12;2.90;;;0.30;;
49812;SDS011;35706;52.100;5.056;2023-04-03T03:42:12;2.28;;;0.30;;
49812;SDS011;35706;52.100;5.056;2023-04-03T03:43:13;1.80;;;0.30;;
49812;SDS011;35706;52.100;5.056;2023-04-03T03:44:13;3.13;;;0.30;;
49812;SDS011;35706;52.100;5.056;2023-04-03T03:45:13;2.47;;;0.30;;
49812;SDS011;35706;52.100;5.056;2023-04-03T03:46:14;0.73;;;0.20;;
49812;SDS011;35706;52.100;5.056;2023-04-03T03:47:14;1.73;;;0.30;;
49812;SDS011;35706;52.100;5.056;2023-04-03T03:48:15;1.08;;;0.30;;
49812;SDS011;35706;52.100;5.056;2023-04-03T03:49:15;1.77;;;0.30;;
49812;SDS011;35706;52.100;5.056;2023-04-03T03:50:15;4.10;;;0.40;;
49812;SDS011;35706;52.100;5.056;2023-04-03T03:51:16;3.50;;;0.38;;
49812;SDS011;35706;52.100;5.056;2023-04-03T03:52:16;0.88;;;0.30;;
49812;SDS011;35706;52.100;5.056;2023-04-03T03:53:17;1.30;;;0.30;;
49812;SDS011;35706;52.100;5.056;2023-04-03T03:54:17;3.28;;;0.60;;
49812;SDS011;35706;52.100;5.056;2023-04-03T03:55:18;1.17;;;0.30;;
49812;SDS011;35706;52.100;5.056;2023-04-03T03:56:18;0.60;;;0.20;;
49812;SDS011;35706;52.100;5.056;2023-04-03T03:57:18;3.00;;;0.30;;
49812;SDS011;35706;52.100;5.056;2023-04-03T03:58:19;0.90;;;0.25;;
49812;SDS011;35706;52.100;5.056;2023-04-03T03:59:20;1.80;;;0.30;;
49812;SDS011;35706;52.100;5.056;2023-04-03T04:00:20;1.90;;;0.30;;
49812;SDS011;35706;52.100;5.056;2023-04-03T04:01:21;3.60;;;0.35;;
49812;SDS011;35706;52.100;5.056;2023-04-03T04:02:22;1.48;;;0.30;;
49812;SDS011;35706;52.100;5.056;2023-04-03T04:03:22;2.55;;;0.30;;
49812;SDS011;35706;52.100;5.056;2023-04-03T04:04:22;1.10;;;0.40;;
49812;SDS011;35706;52.100;5.056;2023-04-03T04:05:23;1.63;;;0.30;;
49812;SDS011;35706;52.100;5.056;2023-04-03T04:06:23;1.48;;;0.30;;
49812;SDS011;35706;52.100;5.056;2023-04-03T04:07:24;0.98;;;0.22;;
49812;SDS011;35706;52.100;5.056;2023-04-03T04:08:24;1.45;;;0.40;;
49812;SDS011;35706;52.100;5.056;2023-04-03T04:09:25;3.00;;;0.30;;
49812;SDS011;35706;52.100;5.056;2023-04-03T04:10:25;1.25;;;0.25;;
49812;SDS011;35706;52.100;5.056;2023-04-03T04:11:26;1.13;;;0.30;;
49812;SDS011;35706;52.100;5.056;2023-04-03T04:12:27;2.13;;;0.32;;
49812;SDS011;35706;52.100;5.056;2023-04-03T04:13:27;1.58;;;0.30;;
49812;SDS011;35706;52.100;5.056;2023-04-03T04:14:28;2.30;;;0.60;;
49812;SDS011;35706;52.100;5.056;2023-04-03T04:15:28;1.15;;;0.30;;
49812;SDS011;35706;52.100;5.056;2023-04-03T04:16:29;1.98;;;0.30;;
49812;SDS011;35706;52.100;5.056;2023-04-03T04:17:29;1.00;;;0.30;;
49812;SDS011;35706;52.100;5.056;2023-04-03T04:18:29;1.50;;;0.30;;
49812;SDS011;35706;52.100;5.056;2023-04-03T04:19:30;1.38;;;0.40;;
49812;SDS011;35706;52.100;5.056;2023-04-03T04:20:30;3.47;;;0.40;;
49812;SDS011;35706;52.100;5.056;2023-04-03T04:21:30;3.00;;;0.40;;
49812;SDS011;35706;52.100;5.056;2023-04-03T04:22:31;1.92;;;0.40;;
49812;SDS011;35706;52.100;5.056;2023-04-03T04:23:31;3.58;;;0.40;;
49812;SDS011;35706;52.100;5.056;2023-04-03T04:24:31;4.50;;;0.30;;
49812;SDS011;35706;52.100;5.056;2023-04-03T04:25:31;1.55;;;0.40;;
49812;SDS011;35706;52.100;5.056;2023-04-03T04:26:32;1.33;;;0.30;;
49812;SDS011;35706;52.100;5.056;2023-04-03T04:27:33;4.03;;;0.70;;
49812;SDS011;35706;52.100;5.056;2023-04-03T04:28:33;1.52;;;0.40;;
49812;SDS011;35706;52.100;5.056;2023-04-03T04:29:33;3.33;;;0.30;;
49812;SDS011;35706;52.100;5.056;2023-04-03T04:30:36;1.58;;;0.40;;
49812;SDS011;35706;52.100;5.056;2023-04-03T04:31:36;3.80;;;0.43;;
49812;SDS011;35706;52.100;5.056;2023-04-03T04:32:37;2.95;;;0.30;;
49812;SDS011;35706;52.100;5.056;2023-04-03T04:33:37;3.88;;;0.40;;
49812;SDS011;35706;52.100;5.056;2023-04-03T04:34:37;2.65;;;0.30;;
49812;SDS011;35706;52.100;5.056;2023-04-03T04:35:38;1.20;;;0.30;;
49812;SDS011;35706;52.100;5.056;2023-04-03T04:36:39;2.17;;;0.30;;
49812;SDS011;35706;52.100;5.056;2023-04-03T04:37:39;0.93;;;0.30;;
49812;SDS011;35706;52.100;5.056;2023-04-03T04:38:40;2.28;;;0.30;;
49812;SDS011;35706;52.100;5.056;2023-04-03T04:39:41;1.80;;;0.40;;
49812;SDS011;35706;52.100;5.056;2023-04-03T04:40:41;3.15;;;0.40;;
49812;SDS011;35706;52.100;5.056;2023-04-03T04:41:41;1.85;;;0.30;;
49812;SDS011;35706;52.100;5.056;2023-04-03T04:42:41;2.17;;;0.40;;
49812;SDS011;35706;52.100;5.056;2023-04-03T04:43:42;1.30;;;0.30;;
49812;SDS011;35706;52.100;5.056;2023-04-03T04:44:43;2.17;;;0.30;;
49812;SDS011;35706;52.100;5.056;2023-04-03T04:45:43;1.40;;;0.30;;
49812;SDS011;35706;52.100;5.056;2023-04-03T04:46:44;1.05;;;0.30;;
49812;SDS011;35706;52.100;5.056;2023-04-03T04:47:45;2.47;;;0.35;;
49812;SDS011;35706;52.100;5.056;2023-04-03T04:48:45;4.13;;;0.40;;
49812;SDS011;35706;52.100;5.056;2023-04-03T04:49:46;3.80;;;0.32;;
49812;SDS011;35706;52.100;5.056;2023-04-03T04:50:47;1.95;;;0.30;;
49812;SDS011;35706;52.100;5.056;2023-04-03T04:51:48;1.73;;;0.40;;
49812;SDS011;35706;52.100;5.056;2023-04-03T04:52:49;4.93;;;0.40;;
49812;SDS011;35706;52.100;5.056;2023-04-03T04:53:49;2.97;;;0.30;;
49812;SDS011;35706;52.100;5.056;2023-04-03T04:54:50;1.10;;;0.30;;
49812;SDS011;35706;52.100;5.056;2023-04-03T04:55:50;2.90;;;0.60;;
49812;SDS011;35706;52.100;5.056;2023-04-03T04:56:51;1.75;;;0.30;;
49812;SDS011;35706;52.100;5.056;2023-04-03T04:57:52;1.35;;;0.40;;
49812;SDS011;35706;52.100;5.056;2023-04-03T04:58:52;1.55;;;0.30;;
49812;SDS011;35706;52.100;5.056;2023-04-03T04:59:52;6.55;;;0.35;;
49812;SDS011;35706;52.100;5.056;2023-04-03T05:01:03;3.00;;;0.40;;
49812;SDS011;35706;52.100;5.056;2023-04-03T05:02:05;2.17;;;0.30;;
49812;SDS011;35706;52.100;5.056;2023-04-03T05:03:05;2.45;;;0.60;;
49812;SDS011;35706;52.100;5.056;2023-04-03T05:04:06;4.65;;;0.93;;
49812;SDS011;35706;52.100;5.056;2023-04-03T05:05:06;4.82;;;0.90;;
49812;SDS011;35706;52.100;5.056;2023-04-03T05:06:07;3.92;;;0.75;;
49812;SDS011;35706;52.100;5.056;2023-04-03T05:07:07;3.25;;;0.40;;
49812;SDS011;35706;52.100;5.056;2023-04-03T05:08:08;1.20;;;0.40;;
49812;SDS011;35706;52.100;5.056;2023-04-03T05:09:08;3.45;;;0.30;;
49812;SDS011;35706;52.100;5.056;2023-04-03T05:10:09;1.48;;;0.30;;
49812;SDS011;35706;52.100;5.056;2023-04-03T05:11:10;3.85;;;0.40;;
49812;SDS011;35706;52.100;5.056;2023-04-03T05:12:12;1.67;;;0.30;;
49812;SDS011;35706;52.100;5.056;2023-04-03T05:13:13;2.75;;;0.40;;
49812;SDS011;35706;52.100;5.056;2023-04-03T05:14:14;1.85;;;0.40;;
49812;SDS011;35706;52.100;5.056;2023-04-03T05:15:15;5.43;;;0.50;;
49812;SDS011;35706;52.100;5.056;2023-04-03T05:16:15;6.32;;;0.82;;
49812;SDS011;35706;52.100;5.056;2023-04-03T05:17:15;3.13;;;0.40;;
49812;SDS011;35706;52.100;5.056;2023-04-03T05:18:16;4.05;;;0.30;;
49812;SDS011;35706;52.100;5.056;2023-04-03T05:19:16;1.85;;;0.32;;
49812;SDS011;35706;52.100;5.056;2023-04-03T05:20:16;1.73;;;0.40;;
49812;SDS011;35706;52.100;5.056;2023-04-03T05:21:17;8.63;;;0.40;;
49812;SDS011;35706;52.100;5.056;2023-04-03T05:22:18;3.97;;;0.40;;
49812;SDS011;35706;52.100;5.056;2023-04-03T05:23:18;2.78;;;0.40;;
49812;SDS011;35706;52.100;5.056;2023-04-03T05:24:19;3.75;;;0.40;;
49812;SDS011;35706;52.100;5.056;2023-04-03T05:25:19;4.75;;;0.40;;
49812;SDS011;35706;52.100;5.056;2023-04-03T05:26:19;1.48;;;0.40;;
49812;SDS011;35706;52.100;5.056;2023-04-03T05:27:20;2.90;;;0.40;;
49812;SDS011;35706;52.100;5.056;2023-04-03T05:28:23;1.25;;;0.50;;
49812;SDS011;35706;52.100;5.056;2023-04-03T05:29:24;6.93;;;0.50;;
49812;SDS011;35706;52.100;5.056;2023-04-03T05:30:24;4.90;;;0.90;;
49812;SDS011;35706;52.100;5.056;2023-04-03T05:31:24;5.10;;;0.50;;
49812;SDS011;35706;52.100;5.056;2023-04-03T05:32:25;3.17;;;0.40;;
49812;SDS011;35706;52.100;5.056;2023-04-03T05:33:27;2.25;;;0.50;;
49812;SDS011;35706;52.100;5.056;2023-04-03T05:34:27;5.03;;;0.50;;
49812;SDS011;35706;52.100;5.056;2023-04-03T05:35:28;3.58;;;0.40;;
49812;SDS011;35706;52.100;5.056;2023-04-03T05:36:28;2.17;;;0.40;;
49812;SDS011;35706;52.100;5.056;2023-04-03T05:37:28;2.17;;;0.38;;
49812;SDS011;35706;52.100;5.056;2023-04-03T05:38:28;1.42;;;0.40;;
49812;SDS011;35706;52.100;5.056;2023-04-03T05:39:29;2.55;;;0.38;;
49812;SDS011;35706;52.100;5.056;2023-04-03T05:40:31;1.88;;;0.40;;
49812;SDS011;35706;52.100;5.056;2023-04-03T05:41:31;2.30;;;0.40;;
49812;SDS011;35706;52.100;5.056;2023-04-03T05:42:32;2.13;;;0.40;;
49812;SDS011;35706;52.100;5.056;2023-04-03T05:43:32;5.93;;;0.43;;
49812;SDS011;35706;52.100;5.056;2023-04-03T05:44:34;3.47;;;0.40;;
49812;SDS011;35706;52.100;5.056;2023-04-03T05:45:35;3.95;;;0.40;;
49812;SDS011;35706;52.100;5.056;2023-04-03T05:46:35;1.65;;;0.40;;
49812;SDS011;35706;52.100;5.056;2023-04-03T05:47:36;2.95;;;0.40;;
49812;SDS011;35706;52.100;5.056;2023-04-03T05:48:36;1.10;;;0.40;;
49812;SDS011;35706;52.100;5.056;2023-04-03T05:49:37;1.67;;;0.40;;
49812;SDS011;35706;52.100;5.056;2023-04-03T05:50:40;4.00;;;0.40;;
49812;SDS011;35706;52.100;5.056;2023-04-03T05:51:42;1.65;;;0.50;;
49812;SDS011;35706;52.100;5.056;2023-04-03T05:52:45;4.72;;;0.40;;
49812;SDS011;35706;52.100;5.056;2023-04-03T05:53:48;1.92;;;0.40;;
49812;SDS011;35706;52.100;5.056;2023-04-03T05:54:52;5.03;;;0.50;;
49812;SDS011;35706;52.100;5.056;2023-04-03T05:55:53;2.70;;;0.30;;
49812;SDS011;35706;52.100;5.056;2023-04-03T05:56:54;1.98;;;0.30;;
49812;SDS011;35706;52.100;5.056;2023-04-03T05:57:54;1.08;;;0.30;;
49812;SDS011;35706;52.100;5.056;2023-04-03T05:58:54;2.38;;;0.32;;
49812;SDS011;35706;52.100;5.056;2023-04-03T05:59:55;3.00;;;0.47;;
49812;SDS011;35706;52.100;5.056;2023-04-03T06:00:55;3.33;;;0.45;;
49812;SDS011;35706;52.100;5.056;2023-04-03T06:01:56;1.00;;;0.35;;
49812;SDS011;35706;52.100;5.056;2023-04-03T06:02:56;1.17;;;0.40;;
49812;SDS011;35706;52.100;5.056;2023-04-03T06:03:56;3.13;;;0.40;;
49812;SDS011;35706;52.100;5.056;2023-04-03T06:04:58;1.75;;;0.40;;
49812;SDS011;35706;52.100;5.056;2023-04-03T06:05:58;2.35;;;0.40;;
49812;SDS011;35706;52.100;5.056;2023-04-03T06:06:59;2.28;;;0.40;;
49812;SDS011;35706;52.100;5.056;2023-04-03T06:07:59;2.25;;;0.40;;
49812;SDS011;35706;52.100;5.056;2023-04-03T06:09:00;4.30;;;0.50;;
49812;SDS011;35706;52.100;5.056;2023-04-03T06:10:01;4.68;;;0.60;;
49812;SDS011;35706;52.100;5.056;2023-04-03T06:11:02;1.40;;;0.40;;
49812;SDS011;35706;52.100;5.056;2023-04-03T06:12:03;3.92;;;0.43;;
49812;SDS011;35706;52.100;5.056;2023-04-03T06:13:03;4.28;;;0.40;;
49812;SDS011;35706;52.100;5.056;2023-04-03T06:14:04;1.20;;;0.40;;